Time;durP1;ratioP1;P1;durP2;ratioP2;P2;SDS_P1;SDS_P2;PMS_P1;PMS_P2;Temp;Humidity;BMP_temperature;BMP_pressure;BME280_temperature;BME280_humidity;BME280_pressure;Samples;Min_cycle;Max_cycle;Signal;HPM_P1;HPM_P2
2021/05/06 00:33:29;;;;;;;6.13;1.73;;;5.30;99.90;;;;;;5081466;28;20391;-83
2021/05/06 00:35:55;;;;;;;7.40;1.70;;;5.20;99.90;;;;;;5081076;28;20434;-83
2021/05/06 00:38:27;;;;;;;4.20;1.80;;;5.20;99.90;;;;;;5081241;28;20271;-84
2021/05/06 00:55:12;;;;;;;3.10;1.63;;;5.00;99.90;;;;;;5079376;28;20465;-83
2021/05/06 01:07:58;;;;;;;2.67;1.87;;;5.10;99.90;;;;;;5016436;28;20410;-83
2021/05/06 01:10:38;;;;;;;4.23;1.57;;;5.20;99.90;;;;;;5015722;28;20452;-83
2021/05/06 01:13:04;;;;;;;2.70;1.53;;;5.10;99.90;;;;;;5042800;28;20449;-83
2021/05/06 01:15:29;;;;;;;3.23;1.87;;;5.10;99.90;;;;;;5057865;28;20526;-83
2021/05/06 01:17:55;;;;;;;3.63;1.73;;;5.10;99.90;;;;;;5074640;28;20176;-83
2021/05/06 01:20:21;;;;;;;6.27;1.57;;;5.00;99.90;;;;;;5058253;28;20199;-83
2021/05/06 01:22:47;;;;;;;4.57;1.40;;;5.00;99.90;;;;;;5070286;28;20731;-83
2021/05/06 01:25:14;;;;;;;2.97;1.80;;;5.00;99.90;;;;;;5082058;28;20169;-83
2021/05/06 01:27:53;;;;;;;5.40;1.70;;;5.00;99.90;;;;;;5099481;28;20410;-82
2021/05/06 01:30:27;;;;;;;4.83;1.70;;;5.00;99.90;;;;;;5068348;28;20463;-84
2021/05/06 01:33:02;;;;;;;2.77;1.50;;;5.00;99.90;;;;;;5063887;28;20411;-84
2021/05/06 01:35:36;;;;;;;3.07;1.70;;;5.00;99.90;;;;;;5064411;28;20434;-84
2021/05/06 01:38:22;;;;;;;2.50;1.70;;;5.00;99.90;;;;;;5064405;28;20920;-84
2021/05/06 01:57:42;;;;;;;2.23;1.50;;;5.10;99.90;;;;;;5082967;28;20522;-84
2021/05/06 02:00:18;;;;;;;4.70;2.00;;;5.10;99.90;;;;;;5062137;28;20454;-83
2021/05/06 02:02:44;;;;;;;4.93;1.80;;;5.20;99.90;;;;;;5079022;28;20541;-83
2021/05/06 02:05:10;;;;;;;4.30;2.30;;;5.00;99.90;;;;;;5080172;28;20502;-83
2021/05/06 02:07:39;;;;;;;1.60;1.50;;;5.20;99.90;;;;;;5062715;28;20411;-83
2021/05/06 02:10:11;;;;;;;2.70;1.77;;;5.20;99.90;;;;;;5062364;28;20450;-84
2021/05/06 02:12:38;;;;;;;2.83;1.77;;;5.20;99.90;;;;;;5080580;28;20426;-84
2021/05/06 02:15:11;;;;;;;5.23;2.03;;;5.20;99.90;;;;;;5062572;28;20419;-83
2021/05/06 02:17:37;;;;;;;2.27;1.57;;;5.20;99.90;;;;;;5080607;28;20453;-84
2021/05/06 02:20:04;;;;;;;5.67;1.70;;;5.20;99.90;;;;;;5062140;28;20841;-83
2021/05/06 02:22:29;;;;;;;4.43;1.73;;;5.30;99.90;;;;;;5080541;28;20208;-83
2021/05/06 02:24:55;;;;;;;2.10;1.73;;;5.30;99.90;;;;;;5062630;28;20415;-83
2021/05/06 02:27:21;;;;;;;6.47;1.70;;;5.30;99.90;;;;;;5078752;28;20177;-83
2021/05/06 02:29:47;;;;;;;4.13;2.10;;;5.30;99.90;;;;;;5059295;28;20207;-83
2021/05/06 02:32:14;;;;;;;6.67;1.63;;;5.30;99.90;;;;;;5078464;28;20627;-83
2021/05/06 02:34:40;;;;;;;5.63;1.90;;;5.20;99.90;;;;;;5059269;28;20842;-83
2021/05/06 02:37:07;;;;;;;2.53;1.50;;;5.20;99.90;;;;;;5078346;28;20415;-83
2021/05/06 02:39:33;;;;;;;2.80;1.90;;;5.20;99.90;;;;;;5058861;28;20427;-83
2021/05/06 02:42:00;;;;;;;4.63;2.03;;;5.10;99.90;;;;;;5077423;28;20451;-83
2021/05/06 02:44:26;;;;;;;1.90;1.80;;;4.90;99.90;;;;;;5059302;28;20211;-83
2021/05/06 02:46:51;;;;;;;2.23;1.70;;;5.10;99.90;;;;;;5058886;28;20567;-83
2021/05/06 02:49:19;;;;;;;3.10;1.70;;;5.00;99.90;;;;;;5076973;28;20169;-83
2021/05/06 02:51:50;;;;;;;4.10;1.47;;;5.00;99.90;;;;;;5082826;28;20173;-83
2021/05/06 02:54:16;;;;;;;2.90;1.77;;;5.00;99.90;;;;;;5076597;28;20743;-83
2021/05/06 02:59:39;;;;;;;10.43;2.10;;;4.90;99.90;;;;;;5082434;28;20173;-83
2021/05/06 03:04:49;;;;;;;9.60;4.47;;;4.90;99.90;;;;;;5086389;28;20422;-83
2021/05/06 03:07:20;;;;;;;4.47;2.90;;;5.00;99.90;;;;;;5067439;28;20996;-83
2021/05/06 03:23:07;;;;;;;5.03;1.63;;;4.90;99.90;;;;;;5084021;28;20458;-83
2021/05/06 03:25:33;;;;;;;5.87;2.60;;;4.90;99.90;;;;;;5066404;28;20415;-84
2021/05/06 03:28:06;;;;;;;3.07;1.93;;;5.00;99.90;;;;;;5066529;28;20177;-83
2021/05/06 04:18:38;;;;;;;7.90;2.60;;;5.20;99.90;;;;;;5078099;28;20931;-81
2021/05/06 04:27:46;;;;;;;5.97;1.80;;;5.00;99.90;;;;;;5077497;28;20804;-81
2021/05/06 04:37:43;;;;;;;4.67;2.00;;;5.20;99.90;;;;;;5066762;28;20422;-81
2021/05/06 04:55:53;;;;;;;2.93;2.10;;;5.50;99.90;;;;;;5081474;28;20243;-82
2021/05/06 05:06:13;;;;;;;4.20;1.90;;;5.70;99.90;;;;;;5081409;28;20399;-82
2021/05/06 05:08:47;;;;;;;4.67;1.80;;;5.60;99.90;;;;;;5062950;28;20237;-83
2021/05/06 05:14:27;;;;;;;4.20;1.70;;;5.80;99.90;;;;;;5079360;28;20184;-82
2021/05/06 05:24:56;;;;;;;2.47;1.50;;;6.10;99.90;;;;;;5079409;28;20175;-82
2021/05/06 05:27:23;;;;;;;3.90;1.70;;;6.10;99.90;;;;;;5080781;28;20395;-82
2021/05/06 05:29:53;;;;;;;2.67;1.97;;;6.20;99.90;;;;;;5061493;28;20439;-82
2021/05/06 05:32:19;;;;;;;9.00;2.07;;;6.30;99.90;;;;;;5060934;28;20181;-80
2021/05/06 05:35:08;;;;;;;5.57;2.07;;;6.50;99.90;;;;;;5078919;28;20173;-82
2021/05/06 05:37:39;;;;;;;4.93;1.67;;;6.60;99.90;;;;;;5061105;28;20642;-81
2021/05/06 05:56:25;;;;;;;3.90;1.80;;;6.90;99.90;;;;;;5081038;28;20159;-82
2021/05/06 05:58:51;;;;;;;2.80;1.60;;;6.90;99.90;;;;;;5080966;28;20650;-83
2021/05/06 06:01:18;;;;;;;4.40;1.70;;;6.90;99.90;;;;;;5081166;28;20199;-83
2021/05/06 06:03:43;;;;;;;4.43;1.90;;;7.00;99.90;;;;;;5062871;28;20205;-82
2021/05/06 06:06:09;;;;;;;4.93;1.83;;;7.00;99.90;;;;;;5062939;28;20216;-82
2021/05/06 06:08:37;;;;;;;6.93;1.63;;;7.10;99.90;;;;;;5081515;28;20299;-82
2021/05/06 06:11:03;;;;;;;2.97;1.63;;;7.20;99.90;;;;;;5062662;28;20255;-82
2021/05/06 06:13:30;;;;;;;3.63;1.80;;;7.30;99.90;;;;;;5062492;28;20176;-83
2021/05/06 06:16:00;;;;;;;3.03;1.70;;;7.40;99.90;;;;;;5063097;28;20177;-83
2021/05/06 06:18:46;;;;;;;7.60;1.90;;;7.40;99.90;;;;;;5063618;28;20638;-82
2021/05/06 06:23:43;;;;;;;3.50;1.80;;;7.40;99.90;;;;;;5080847;28;20227;-81
2021/05/06 06:26:09;;;;;;;4.80;1.87;;;7.40;99.90;;;;;;5079382;28;20284;-81
2021/05/06 06:28:40;;;;;;;3.10;1.80;;;7.50;99.90;;;;;;5080267;28;20177;-82
2021/05/06 06:33:42;;;;;;;5.50;1.70;;;7.60;99.90;;;;;;5080739;28;20611;-82
2021/05/06 06:36:08;;;;;;;3.63;1.70;;;7.70;99.90;;;;;;5064305;28;20178;-82
2021/05/06 06:38:33;;;;;;;4.00;1.60;;;7.70;99.90;;;;;;5068492;28;20172;-82
2021/05/06 06:41:01;;;;;;;4.27;1.67;;;7.80;99.90;;;;;;5069812;28;20284;-82
2021/05/06 06:43:26;;;;;;;3.27;1.70;;;8.00;99.90;;;;;;5067995;28;20656;-82
2021/05/06 06:45:52;;;;;;;5.57;1.63;;;8.10;99.90;;;;;;5064667;28;20173;-82
2021/05/06 06:48:18;;;;;;;6.37;1.87;;;8.30;99.90;;;;;;5082666;28;20171;-81
2021/05/06 06:50:44;;;;;;;2.87;1.23;;;8.40;99.90;;;;;;5063567;28;20222;-81
2021/05/06 06:53:12;;;;;;;3.97;1.90;;;8.40;99.90;;;;;;5064109;28;20177;-81
2021/05/06 06:55:39;;;;;;;5.27;1.60;;;8.50;99.90;;;;;;5063932;28;20181;-82
2021/05/06 06:58:09;;;;;;;1.83;1.30;;;8.70;99.90;;;;;;5064188;28;20182;-82
2021/05/06 07:00:35;;;;;;;4.13;1.50;;;8.90;99.90;;;;;;5064410;28;20201;-81
2021/05/06 07:03:00;;;;;;;4.03;1.53;;;9.00;99.90;;;;;;5064003;28;20212;-82
2021/05/06 07:05:26;;;;;;;3.07;1.30;;;9.10;99.90;;;;;;5063131;28;20667;-81
2021/05/06 07:07:52;;;;;;;1.93;1.47;;;9.10;99.90;;;;;;5063483;28;20179;-82
2021/05/06 07:10:17;;;;;;;6.20;1.40;;;9.10;99.90;;;;;;5081201;28;20189;-81
2021/05/06 07:12:43;;;;;;;7.80;1.80;;;9.20;99.90;;;;;;5063384;28;20204;-81
2021/05/06 07:15:09;;;;;;;4.20;1.67;;;9.40;99.90;;;;;;5080627;28;20260;-81
2021/05/06 07:17:34;;;;;;;4.80;1.60;;;9.50;99.90;;;;;;5081875;28;20264;-82
2021/05/06 07:20:00;;;;;;;3.70;1.33;;;9.40;99.90;;;;;;5080589;28;20235;-81
2021/05/06 07:22:26;;;;;;;3.33;1.40;;;9.30;99.90;;;;;;5079837;28;20643;-81
2021/05/06 07:24:51;;;;;;;3.53;1.33;;;9.20;99.90;;;;;;5079941;28;20223;-81
2021/05/06 07:27:17;;;;;;;4.10;1.17;;;9.20;99.90;;;;;;5079607;28;20165;-81
2021/05/06 07:29:43;;;;;;;3.20;1.73;;;9.40;99.90;;;;;;5061388;28;20266;-81
2021/05/06 07:32:09;;;;;;;2.90;1.40;;;9.60;99.90;;;;;;5079219;28;20265;-81
2021/05/06 07:34:35;;;;;;;6.70;1.83;;;9.90;99.90;;;;;;5078546;28;20636;-81
2021/05/06 07:37:01;;;;;;;3.30;1.50;;;9.90;99.90;;;;;;5060818;28;20188;-81
2021/05/06 07:39:26;;;;;;;5.90;1.13;;;9.80;99.90;;;;;;5060628;28;20186;-81
2021/05/06 07:41:52;;;;;;;5.83;1.30;;;10.00;99.90;;;;;;5077925;28;20180;-81
2021/05/06 07:44:17;;;;;;;9.00;1.43;;;10.00;99.90;;;;;;5077272;28;20184;-81
2021/05/06 07:46:43;;;;;;;4.07;1.43;;;10.00;99.30;;;;;;5058580;28;20185;-81
2021/05/06 07:49:09;;;;;;;4.00;1.50;;;10.10;98.90;;;;;;5078523;28;20181;-81
2021/05/06 07:51:34;;;;;;;3.77;1.53;;;10.00;99.00;;;;;;5069840;28;20207;-81
2021/05/06 07:54:07;;;;;;;7.53;1.30;;;10.20;99.40;;;;;;5080228;28;20202;-81
2021/05/06 07:56:33;;;;;;;4.47;1.33;;;10.40;99.20;;;;;;5100760;28;20160;-80
2021/05/06 07:58:59;;;;;;;4.57;1.33;;;10.60;98.20;;;;;;5088683;28;20203;-81
2021/05/06 08:01:24;;;;;;;6.17;1.83;;;10.70;97.70;;;;;;5081746;28;20196;-82
2021/05/06 08:03:52;;;;;;;4.70;1.73;;;10.70;96.80;;;;;;5062924;28;20215;-82
2021/05/06 08:06:20;;;;;;;3.37;1.30;;;10.80;95.80;;;;;;5063565;28;20222;-81
2021/05/06 08:08:46;;;;;;;2.83;1.40;;;11.00;94.90;;;;;;5064090;28;20191;-81
2021/05/06 08:11:11;;;;;;;4.03;1.40;;;11.40;94.60;;;;;;5081165;28;20199;-81
2021/05/06 08:13:37;;;;;;;4.30;1.50;;;11.80;94.20;;;;;;5063755;28;20180;-81
2021/05/06 08:16:03;;;;;;;6.67;1.47;;;11.90;93.00;;;;;;5081162;28;20173;-81
2021/05/06 08:18:28;;;;;;;6.07;1.30;;;12.10;92.10;;;;;;5062705;28;20627;-81
2021/05/06 08:20:54;;;;;;;1.50;1.17;;;12.30;92.00;;;;;;5063407;28;20670;-81
2021/05/06 08:23:20;;;;;;;6.37;1.40;;;12.40;91.00;;;;;;5063019;28;20219;-82
2021/05/06 08:25:46;;;;;;;5.00;1.57;;;12.60;91.10;;;;;;5080692;28;20655;-83
2021/05/06 08:28:11;;;;;;;4.67;1.40;;;13.00;90.20;;;;;;5063547;28;20185;-80
2021/05/06 08:30:37;;;;;;;5.10;1.20;;;12.30;90.20;;;;;;5062577;28;20677;-82
2021/05/06 08:33:04;;;;;;;2.13;1.30;;;11.80;90.10;;;;;;5082060;28;20252;-83
2021/05/06 08:35:30;;;;;;;5.13;1.43;;;11.50;91.00;;;;;;5063555;28;20200;-83
2021/05/06 08:37:56;;;;;;;6.57;1.57;;;11.40;91.30;;;;;;5063592;28;20181;-83
2021/05/06 08:40:22;;;;;;;5.67;1.33;;;11.50;92.10;;;;;;5063314;28;20220;-83
2021/05/06 08:42:52;;;;;;;5.67;1.40;;;11.50;91.20;;;;;;5063381;28;20235;-83
2021/05/06 08:45:18;;;;;;;4.73;1.23;;;11.50;90.90;;;;;;5063919;28;20656;-84
2021/05/06 08:47:45;;;;;;;5.50;1.40;;;11.30;92.00;;;;;;5064836;28;20528;-83
2021/05/06 08:50:12;;;;;;;5.83;1.23;;;11.20;91.00;;;;;;5082481;28;20662;-83
2021/05/06 08:52:40;;;;;;;5.70;1.47;;;11.40;91.60;;;;;;5081938;28;20180;-83
2021/05/06 08:55:06;;;;;;;5.83;1.20;;;11.70;91.70;;;;;;5063013;28;20177;-83
2021/05/06 08:57:32;;;;;;;3.37;1.30;;;11.80;90.50;;;;;;5063411;28;20219;-83
2021/05/06 08:59:58;;;;;;;4.37;1.20;;;11.90;90.20;;;;;;5063086;28;20196;-83
2021/05/06 09:02:24;;;;;;;4.20;1.40;;;11.70;88.80;;;;;;5063713;28;20207;-83
2021/05/06 09:04:49;;;;;;;5.47;1.10;;;11.60;90.40;;;;;;5062408;28;20183;-84
2021/05/06 09:07:15;;;;;;;4.70;1.30;;;11.50;88.30;;;;;;5062529;28;20173;-83
2021/05/06 09:09:48;;;;;;;2.10;1.27;;;11.50;88.90;;;;;;5062085;28;20173;-83
2021/05/06 09:12:15;;;;;;;3.13;1.27;;;11.40;90.30;;;;;;5080816;28;20163;-83
2021/05/06 09:14:48;;;;;;;3.30;1.30;;;11.40;88.10;;;;;;5062138;28;20219;-84
2021/05/06 09:17:27;;;;;;;2.57;1.13;;;11.40;87.90;;;;;;5078423;28;20204;-83
2021/05/06 09:20:07;;;;;;;6.73;1.37;;;11.20;87.20;;;;;;5063858;28;20193;-84
2021/05/06 09:22:46;;;;;;;3.20;1.40;;;11.20;86.90;;;;;;5064330;28;20208;-84
2021/05/06 09:25:30;;;;;;;3.33;1.77;;;11.10;87.60;;;;;;5083445;28;20157;-84
2021/05/06 09:28:02;;;;;;;8.40;1.30;;;11.00;89.00;;;;;;5064133;28;20176;-84
2021/05/06 09:30:29;;;;;;;3.87;1.37;;;11.00;88.40;;;;;;5063361;28;20189;-84
2021/05/06 09:33:08;;;;;;;2.67;1.07;;;11.00;90.00;;;;;;5081352;28;20177;-83
2021/05/06 09:35:45;;;;;;;5.87;1.40;;;10.90;88.50;;;;;;5063484;28;20183;-84
2021/05/06 09:38:23;;;;;;;4.80;1.20;;;10.90;90.00;;;;;;5063518;28;20247;-83
2021/05/06 09:40:49;;;;;;;5.17;1.37;;;10.90;90.20;;;;;;5082518;28;20279;-83
2021/05/06 09:43:26;;;;;;;2.73;1.00;;;10.80;88.70;;;;;;5081938;28;20197;-83
2021/05/06 09:45:53;;;;;;;3.27;1.30;;;10.70;88.60;;;;;;5063386;28;20179;-84
2021/05/06 09:48:21;;;;;;;3.67;1.40;;;10.60;90.40;;;;;;5080332;28;20169;-83
2021/05/06 09:50:52;;;;;;;7.10;1.70;;;10.50;90.40;;;;;;5081206;28;20183;-83
2021/05/06 09:53:23;;;;;;;5.03;1.07;;;10.40;91.70;;;;;;5061656;28;20183;-83
2021/05/06 09:55:50;;;;;;;5.73;1.30;;;10.20;92.50;;;;;;5080627;28;20171;-83
2021/05/06 09:58:30;;;;;;;3.23;1.10;;;10.10;93.00;;;;;;5063037;28;20180;-83
2021/05/06 10:00:56;;;;;;;2.53;1.10;;;9.90;94.40;;;;;;5080905;28;20238;-83
2021/05/06 10:03:30;;;;;;;1.83;1.00;;;9.70;96.10;;;;;;5063974;28;20203;-83
2021/05/06 10:05:56;;;;;;;4.20;1.40;;;9.50;97.10;;;;;;5062864;28;20173;-85
2021/05/06 10:08:36;;;;;;;4.27;1.50;;;9.50;97.60;;;;;;5082139;28;20177;-82
2021/05/06 10:11:28;;;;;;;3.27;0.93;;;9.60;97.50;;;;;;5065653;28;20208;-83
2021/05/06 10:13:57;;;;;;;1.57;1.03;;;9.60;98.80;;;;;;5081003;28;20254;-85
2021/05/06 10:16:23;;;;;;;6.00;1.30;;;9.50;99.10;;;;;;5068102;28;20244;-83
2021/05/06 10:18:49;;;;;;;2.83;1.27;;;9.50;99.90;;;;;;5087313;28;20174;-83
2021/05/06 10:21:17;;;;;;;2.37;1.20;;;9.40;99.90;;;;;;5071964;28;20286;-83
2021/05/06 10:23:48;;;;;;;6.30;1.23;;;9.50;99.90;;;;;;5067897;28;20200;-83
2021/05/06 10:26:14;;;;;;;46.70;6.33;;;9.50;99.90;;;;;;5065230;28;20172;-84
2021/05/06 10:28:40;;;;;;;5.17;1.07;;;9.50;99.90;;;;;;5082804;28;20173;-84
2021/05/06 10:31:09;;;;;;;31.77;3.13;;;9.50;99.90;;;;;;5083173;28;20584;-84
2021/05/06 10:33:41;;;;;;;2.43;1.20;;;9.60;99.90;;;;;;5067624;28;20179;-84
2021/05/06 10:36:09;;;;;;;4.97;1.10;;;9.50;99.90;;;;;;5066276;28;20182;-84
2021/05/06 10:38:38;;;;;;;2.63;1.30;;;9.40;99.90;;;;;;5065716;28;20267;-83
2021/05/06 10:41:22;;;;;;;1.97;1.13;;;9.40;99.90;;;;;;5066080;28;20268;-83
2021/05/06 10:43:53;;;;;;;1.87;0.97;;;9.30;99.90;;;;;;5065517;28;20219;-83
2021/05/06 10:46:18;;;;;;;5.27;0.90;;;9.30;99.90;;;;;;5064405;28;20235;-83
2021/05/06 10:48:53;;;;;;;1.73;0.93;;;9.40;99.90;;;;;;5064128;28;20638;-84
2021/05/06 10:51:40;;;;;;;4.57;1.37;;;9.30;99.90;;;;;;5064082;28;20196;-83
2021/05/06 10:54:34;;;;;;;4.60;1.67;;;9.30;99.90;;;;;;5063106;28;20181;-83
2021/05/06 10:57:09;;;;;;;3.17;1.40;;;9.20;99.90;;;;;;5058571;28;20182;-83
2021/05/06 10:59:40;;;;;;;1.87;0.93;;;9.30;99.90;;;;;;5057962;28;20158;-83
2021/05/06 11:02:07;;;;;;;11.80;2.57;;;9.20;99.90;;;;;;5069568;28;20174;-83
2021/05/06 11:04:35;;;;;;;4.73;1.30;;;9.10;99.90;;;;;;5080883;28;20163;-81
2021/05/06 11:07:15;;;;;;;2.70;1.20;;;8.90;99.90;;;;;;5064873;28;20161;-82
2021/05/06 11:09:46;;;;;;;2.73;1.13;;;8.90;99.90;;;;;;5050500;28;20189;-84
2021/05/06 11:12:15;;;;;;;33.03;3.97;;;8.90;99.90;;;;;;5045608;28;20180;-84
2021/05/06 11:14:59;;;;;;;66.20;8.40;;;8.80;99.90;;;;;;5044993;28;20182;-84
2021/05/06 11:17:45;;;;;;;2.10;1.37;;;8.70;99.90;;;;;;5045672;28;20190;-84
2021/05/06 11:20:11;;;;;;;3.20;1.33;;;8.70;99.90;;;;;;5063360;28;20217;-84
2021/05/06 11:22:43;;;;;;;2.90;1.40;;;8.70;99.90;;;;;;5044981;28;20214;-85
2021/05/06 11:25:41;;;;;;;1.97;1.20;;;8.50;99.90;;;;;;5044805;28;20202;-84
2021/05/06 11:28:32;;;;;;;47.07;6.30;;;8.50;99.90;;;;;;5063655;28;20507;-84
2021/05/06 11:30:58;;;;;;;7.43;1.80;;;8.60;99.90;;;;;;5062785;28;20243;-84
2021/05/06 11:33:28;;;;;;;5.87;2.00;;;8.60;99.90;;;;;;5063264;28;20215;-84
2021/05/06 11:35:55;;;;;;;4.20;2.20;;;8.70;99.90;;;;;;5065870;28;20222;-84
2021/05/06 11:38:21;;;;;;;4.40;1.43;;;8.70;99.90;;;;;;5044402;28;20193;-84
2021/05/06 11:40:47;;;;;;;3.80;2.10;;;8.80;99.90;;;;;;5044901;28;20287;-84
2021/05/06 11:43:22;;;;;;;19.67;3.87;;;9.00;99.90;;;;;;5044381;28;20220;-84
2021/05/06 11:45:48;;;;;;;8.77;2.27;;;9.20;99.90;;;;;;5062852;28;20191;-84
2021/05/06 11:48:15;;;;;;;15.77;4.40;;;9.20;99.90;;;;;;5045054;28;20635;-84
2021/05/06 11:50:45;;;;;;;7.53;2.00;;;9.20;99.90;;;;;;5044000;28;20203;-84
2021/05/06 11:53:16;;;;;;;6.57;1.60;;;9.30;99.90;;;;;;5044545;28;20193;-84
2021/05/06 11:55:44;;;;;;;4.97;3.00;;;9.30;99.90;;;;;;5062501;28;20620;-83
2021/05/06 11:58:11;;;;;;;3.13;1.47;;;9.20;99.90;;;;;;5042855;28;20174;-84
2021/05/06 12:00:39;;;;;;;2.93;1.60;;;9.20;99.90;;;;;;5044467;28;20221;-84
2021/05/06 12:03:10;;;;;;;3.37;1.23;;;9.20;99.90;;;;;;5044860;28;20676;-84
2021/05/06 12:06:00;;;;;;;3.53;1.40;;;9.00;99.90;;;;;;5044629;28;20253;-85
2021/05/06 12:08:32;;;;;;;3.40;1.27;;;8.90;99.90;;;;;;5079390;28;20179;-86
2021/05/06 12:11:04;;;;;;;2.27;1.20;;;8.80;99.90;;;;;;5082174;28;20196;-84
2021/05/06 12:13:35;;;;;;;2.03;1.30;;;8.50;99.90;;;;;;5059640;28;20181;-83
2021/05/06 12:16:22;;;;;;;32.93;5.50;;;8.40;99.90;;;;;;5057478;28;20280;-84
2021/05/06 12:19:12;;;;;;;9.50;2.37;;;8.40;99.90;;;;;;5061731;28;20330;-84
2021/05/06 12:21:43;;;;;;;3.27;1.20;;;8.30;99.90;;;;;;5064360;28;20248;-81
2021/05/06 12:24:12;;;;;;;3.67;1.60;;;8.20;99.90;;;;;;5083186;28;20193;-85
2021/05/06 12:26:39;;;;;;;2.37;1.80;;;8.20;99.90;;;;;;5061954;28;20193;-83
2021/05/06 12:29:05;;;;;;;5.13;1.70;;;8.20;99.90;;;;;;5077165;28;20165;-83
2021/05/06 12:31:44;;;;;;;5.40;1.77;;;8.10;99.90;;;;;;5076657;28;20196;-83
2021/05/06 12:34:15;;;;;;;4.37;2.07;;;8.10;99.90;;;;;;5076427;28;20212;-83
2021/05/06 12:36:57;;;;;;;2.57;1.60;;;8.10;99.90;;;;;;5058718;28;20204;-83
2021/05/06 12:39:24;;;;;;;3.23;2.03;;;8.10;99.90;;;;;;5076696;28;20161;-83
2021/05/06 12:41:57;;;;;;;3.20;1.70;;;8.20;99.90;;;;;;5058741;28;20201;-84
2021/05/06 12:44:37;;;;;;;2.60;2.00;;;8.30;99.90;;;;;;5057851;28;20211;-83
2021/05/06 12:47:18;;;;;;;7.37;2.60;;;8.30;99.90;;;;;;5076227;28;20253;-83
2021/05/06 12:49:45;;;;;;;4.63;2.87;;;8.40;99.90;;;;;;5058552;28;20175;-83
2021/05/06 12:52:34;;;;;;;8.67;2.90;;;8.50;99.90;;;;;;5058375;28;20181;-84
2021/05/06 12:55:13;;;;;;;5.47;2.90;;;8.70;99.90;;;;;;5076151;28;20172;-83
2021/05/06 12:57:39;;;;;;;3.60;1.70;;;8.70;99.90;;;;;;5058382;28;20169;-83
2021/05/06 13:00:33;;;;;;;6.50;2.10;;;8.70;99.90;;;;;;5058013;28;20264;-83
2021/05/06 13:03:07;;;;;;;3.03;1.83;;;8.70;99.90;;;;;;5056264;28;20578;-83
2021/05/06 13:05:39;;;;;;;4.23;2.20;;;8.60;99.90;;;;;;5057903;28;20172;-84
2021/05/06 13:08:05;;;;;;;3.20;1.80;;;8.60;99.90;;;;;;5056558;28;20620;-83
2021/05/06 13:10:35;;;;;;;2.10;1.53;;;8.60;99.90;;;;;;5054580;28;20201;-83
2021/05/06 13:13:02;;;;;;;2.10;1.60;;;8.60;99.90;;;;;;5039177;28;20320;-83
2021/05/06 13:15:29;;;;;;;3.90;2.10;;;8.60;99.90;;;;;;5041574;28;20173;-83
2021/05/06 13:17:58;;;;;;;4.17;1.70;;;8.70;99.90;;;;;;5077159;28;20177;-83
2021/05/06 13:20:28;;;;;;;2.80;1.50;;;8.60;99.90;;;;;;5059640;28;20199;-83
2021/05/06 13:23:08;;;;;;;2.27;1.90;;;8.60;99.90;;;;;;5059128;28;20214;-83
2021/05/06 13:25:44;;;;;;;3.57;1.97;;;8.50;99.90;;;;;;5057265;28;20652;-83
2021/05/06 13:28:13;;;;;;;5.57;2.40;;;8.60;99.90;;;;;;5057489;28;20168;-83
2021/05/06 13:30:39;;;;;;;2.90;1.73;;;8.50;99.90;;;;;;5075009;28;20322;-83
2021/05/06 13:33:18;;;;;;;85.43;11.43;;;8.50;99.90;;;;;;5074877;28;20267;-82
2021/05/06 13:36:04;;;;;;;18.57;3.30;;;8.50;99.90;;;;;;5065677;28;20185;-83
2021/05/06 13:39:06;;;;;;;5.97;1.77;;;8.50;99.90;;;;;;5097961;28;20185;-82
2021/05/06 13:41:44;;;;;;;4.13;1.53;;;8.40;99.90;;;;;;4997394;28;20203;-83
2021/05/06 13:44:14;;;;;;;4.33;2.03;;;8.30;99.90;;;;;;5049221;28;20330;-83
2021/05/06 13:46:55;;;;;;;5.43;2.40;;;8.30;99.90;;;;;;5076314;28;20177;-83
2021/05/06 13:49:21;;;;;;;2.70;2.00;;;8.40;99.90;;;;;;5076712;28;20161;-83
2021/05/06 13:51:48;;;;;;;3.07;1.90;;;8.20;99.90;;;;;;5076363;28;20184;-84
2021/05/06 13:54:15;;;;;;;7.63;3.00;;;8.20;99.90;;;;;;5058965;28;20178;-84
2021/05/06 13:56:42;;;;;;;4.17;2.10;;;8.10;99.90;;;;;;5054913;28;20207;-83
2021/05/06 13:59:08;;;;;;;7.93;2.53;;;8.20;99.90;;;;;;5038460;28;20559;-83
2021/05/06 14:01:34;;;;;;;4.17;2.50;;;8.10;99.90;;;;;;5039647;28;20251;-84
2021/05/06 14:04:00;;;;;;;3.20;2.13;;;8.10;99.90;;;;;;5056563;28;20203;-83
2021/05/06 14:06:26;;;;;;;4.80;2.90;;;8.20;99.90;;;;;;5057700;28;20173;-84
2021/05/06 14:08:52;;;;;;;5.23;2.60;;;8.20;99.90;;;;;;5040683;28;20173;-83
2021/05/06 14:11:18;;;;;;;9.00;3.50;;;8.10;99.90;;;;;;5056722;28;20201;-84
2021/05/06 14:13:43;;;;;;;3.67;2.10;;;8.20;99.90;;;;;;5040137;28;20189;-83
2021/05/06 14:16:09;;;;;;;4.50;2.57;;;8.20;99.90;;;;;;5040647;28;20174;-84
2021/05/06 14:18:35;;;;;;;4.00;2.47;;;8.20;99.90;;;;;;5056876;28;20183;-83
2021/05/06 14:21:03;;;;;;;7.33;3.27;;;8.10;99.90;;;;;;5039923;28;20253;-83
2021/05/06 14:23:37;;;;;;;4.83;2.50;;;8.10;99.90;;;;;;5058073;28;20204;-84
2021/05/06 14:26:03;;;;;;;7.20;4.77;;;8.00;99.90;;;;;;5058166;28;20204;-84
2021/05/06 14:28:29;;;;;;;11.90;7.47;;;8.00;99.90;;;;;;5041460;28;20175;-84
2021/05/06 14:30:55;;;;;;;3.47;2.30;;;8.00;99.90;;;;;;5059329;28;20190;-84
2021/05/06 14:33:21;;;;;;;3.77;3.23;;;7.90;99.90;;;;;;5058758;28;20182;-84
2021/05/06 14:35:46;;;;;;;7.97;2.87;;;7.90;99.90;;;;;;5039589;28;20178;-84
2021/05/06 14:38:12;;;;;;;3.10;2.37;;;7.80;99.90;;;;;;5057725;28;20265;-84
2021/05/06 14:40:40;;;;;;;16.23;11.67;;;7.70;99.90;;;;;;5039312;28;20244;-84
2021/05/06 14:43:08;;;;;;;34.70;23.17;;;7.70;99.90;;;;;;5039251;28;20210;-84
2021/05/06 14:45:37;;;;;;;24.37;15.00;;;7.60;99.90;;;;;;5039433;28;20550;-83
2021/05/06 14:48:03;;;;;;;20.87;14.20;;;7.70;99.90;;;;;;5057401;28;20182;-83
2021/05/06 14:50:31;;;;;;;7.77;6.43;;;7.70;99.90;;;;;;5039327;28;20583;-83
2021/05/06 14:52:57;;;;;;;7.33;6.17;;;7.60;99.90;;;;;;5056186;28;20222;-84
2021/05/06 14:55:23;;;;;;;22.73;17.53;;;7.60;99.90;;;;;;5039594;28;20582;-84
2021/05/06 14:57:50;;;;;;;15.33;9.97;;;7.60;99.90;;;;;;5060487;28;20213;-83
2021/05/06 15:00:18;;;;;;;6.87;4.73;;;7.50;99.90;;;;;;5059136;28;20548;-83
2021/05/06 15:02:44;;;;;;;156.23;21.30;;;7.60;99.90;;;;;;5060709;28;20201;-83
2021/05/06 15:05:11;;;;;;;21.20;7.10;;;7.60;99.90;;;;;;5061516;28;20643;-83
2021/05/06 15:07:36;;;;;;;12.60;8.67;;;7.60;99.90;;;;;;5043087;28;20189;-83
2021/05/06 15:10:03;;;;;;;15.33;7.00;;;7.60;99.90;;;;;;5043227;28;20564;-83
2021/05/06 15:12:29;;;;;;;5.20;3.23;;;7.50;99.90;;;;;;5062554;28;20236;-83
2021/05/06 15:14:55;;;;;;;7.60;4.57;;;7.50;99.90;;;;;;5046071;28;20603;-83
2021/05/06 15:17:20;;;;;;;5.50;3.77;;;7.50;99.90;;;;;;5042665;28;20228;-83
2021/05/06 15:19:48;;;;;;;4.47;3.77;;;7.50;99.90;;;;;;5043116;28;20235;-83
2021/05/06 15:22:14;;;;;;;5.97;3.73;;;7.40;99.90;;;;;;5059627;28;20193;-83
2021/05/06 15:24:40;;;;;;;6.90;4.00;;;7.40;99.90;;;;;;5060071;28;20181;-86
2021/05/06 15:27:06;;;;;;;7.20;4.27;;;7.30;99.90;;;;;;5060395;28;20188;-87
2021/05/06 15:29:31;;;;;;;7.27;5.00;;;7.40;99.90;;;;;;5042192;28;20174;-84
2021/05/06 15:31:57;;;;;;;4.63;4.10;;;7.40;99.90;;;;;;5058041;28;20181;-82
2021/05/06 15:34:23;;;;;;;6.93;4.60;;;7.40;99.90;;;;;;5023478;28;20276;-82
2021/05/06 15:36:49;;;;;;;5.80;4.03;;;7.30;99.90;;;;;;5059445;28;20587;-83
2021/05/06 15:39:15;;;;;;;16.40;11.00;;;7.30;99.90;;;;;;5059549;28;20172;-82
2021/05/06 15:41:40;;;;;;;85.60;54.93;;;7.30;99.90;;;;;;5059003;28;20597;-81
2021/05/06 15:44:06;;;;;;;21.27;14.60;;;7.30;99.90;;;;;;5058360;28;20671;-82
2021/05/06 15:46:35;;;;;;;9.30;8.20;;;7.30;99.90;;;;;;5056801;28;20185;-81
2021/05/06 15:49:03;;;;;;;9.43;5.80;;;7.30;99.90;;;;;;5039670;28;20315;-81
2021/05/06 15:51:30;;;;;;;6.03;5.43;;;7.30;99.90;;;;;;5057811;28;20197;-82
2021/05/06 15:53:56;;;;;;;7.97;5.70;;;7.30;99.90;;;;;;5057902;28;20223;-81
2021/05/06 15:56:23;;;;;;;5.23;3.83;;;7.30;99.90;;;;;;5057623;28;20565;-82
2021/05/06 15:58:51;;;;;;;5.27;3.47;;;7.30;99.90;;;;;;5057209;28;20189;-82
2021/05/06 16:01:19;;;;;;;4.53;3.00;;;7.30;99.90;;;;;;5040156;28;20197;-82
2021/05/06 16:03:49;;;;;;;4.50;2.70;;;7.10;99.90;;;;;;5057880;28;20197;-82
2021/05/06 16:06:15;;;;;;;4.90;3.80;;;7.10;99.90;;;;;;5057942;28;20203;-82
2021/05/06 16:08:41;;;;;;;6.57;4.13;;;7.20;99.90;;;;;;5039093;28;20217;-82
2021/05/06 16:11:07;;;;;;;7.10;4.20;;;7.20;99.90;;;;;;5056353;28;20281;-82
2021/05/06 16:13:33;;;;;;;26.03;10.03;;;7.30;99.90;;;;;;5039829;28;20213;-82
2021/05/06 16:15:59;;;;;;;231.00;59.80;;;7.20;99.90;;;;;;5056149;28;20177;-82
2021/05/06 16:18:24;;;;;;;115.80;33.77;;;7.20;99.90;;;;;;5038865;28;20184;-82
2021/05/06 16:20:51;;;;;;;46.33;15.37;;;7.20;99.90;;;;;;5037807;28;20209;-81
2021/05/06 16:23:16;;;;;;;13.73;6.10;;;7.20;99.90;;;;;;5056470;28;20549;-81
2021/05/06 16:25:43;;;;;;;17.13;12.70;;;7.20;99.90;;;;;;5049857;28;20206;-82
2021/05/06 16:28:10;;;;;;;14.40;10.47;;;7.20;99.90;;;;;;5062905;28;20172;-81
2021/05/06 16:30:36;;;;;;;8.90;6.93;;;7.10;99.90;;;;;;5080285;28;20441;-81
2021/05/06 16:33:05;;;;;;;9.13;5.13;;;7.20;99.90;;;;;;5064677;28;20178;-82
2021/05/06 16:35:35;;;;;;;8.20;4.63;;;7.20;99.90;;;;;;5060073;28;20169;-82